createdAt,value
2023-05-19T08:15:52.779Z,14.42
2023-05-19T08:16:54.188Z,14.44
2023-05-19T08:17:54.955Z,14.53
2023-05-19T08:18:55.967Z,14.57
2023-05-19T08:19:56.730Z,14.59
2023-05-19T08:20:57.432Z,14.69
2023-05-19T08:21:58.167Z,14.75
2023-05-19T08:22:58.878Z,14.79
2023-05-19T08:23:59.636Z,14.86
2023-05-19T08:25:00.328Z,14.91
2023-05-19T08:26:01.096Z,14.98
2023-05-19T08:27:01.809Z,15.04
2023-05-19T08:28:02.535Z,15.13
2023-05-19T08:29:03.224Z,15.18
2023-05-19T08:30:04.111Z,15.25
2023-05-19T08:31:04.840Z,15.35
2023-05-19T08:32:05.807Z,15.40
2023-05-19T08:33:06.573Z,15.48
2023-05-19T08:34:07.294Z,15.53
2023-05-19T08:35:08.031Z,15.58
2023-05-19T08:36:08.741Z,15.66
2023-05-19T08:37:09.454Z,15.70
2023-05-19T08:38:10.164Z,15.77
2023-05-19T08:39:10.906Z,15.89
2023-05-19T08:40:11.630Z,15.96
2023-05-19T08:41:12.317Z,16.10
2023-05-19T08:42:13.037Z,16.17
2023-05-19T08:43:13.760Z,16.29
2023-05-19T08:44:15.285Z,16.36
2023-05-19T08:45:16.024Z,16.44
2023-05-19T08:46:16.215Z,16.51
2023-05-19T08:47:17.010Z,16.54
2023-05-19T08:48:17.772Z,16.63
2023-05-19T08:49:18.484Z,16.70
2023-05-19T08:50:19.353Z,16.73
2023-05-19T08:51:20.048Z,16.80
2023-05-19T08:52:20.757Z,16.82
2023-05-19T08:53:32.386Z,16.87
2023-05-19T08:54:22.523Z,16.84
2023-05-19T08:55:23.266Z,16.85
2023-05-19T08:56:23.992Z,16.82
2023-05-19T08:57:24.708Z,16.87
2023-05-19T08:58:26.807Z,16.91
2023-05-19T08:59:26.656Z,16.91
2023-05-19T09:00:27.371Z,16.92
2023-05-19T09:01:28.083Z,16.92
2023-05-19T09:02:29.183Z,16.88
2023-05-19T09:03:29.438Z,16.98
2023-05-19T09:04:30.611Z,16.98
2023-05-19T09:05:31.718Z,17.07
2023-05-19T09:06:32.030Z,17.17
2023-05-19T09:07:32.858Z,17.18
2023-05-19T09:08:33.538Z,17.24
2023-05-19T09:09:34.233Z,17.24
2023-05-19T09:10:34.984Z,17.27
2023-05-19T09:11:35.701Z,17.36
2023-05-19T09:12:36.428Z,17.36
2023-05-19T09:13:37.156Z,17.38
2023-05-19T09:14:37.853Z,17.46
2023-05-19T09:15:38.571Z,17.47
2023-05-19T09:16:39.366Z,17.47
2023-05-19T09:17:40.154Z,17.53
2023-05-19T09:18:40.969Z,17.58
2023-05-19T09:19:41.730Z,17.58
2023-05-19T09:20:42.443Z,17.62
2023-05-19T09:21:44.569Z,17.66
2023-05-19T09:22:44.250Z,17.73
2023-05-19T09:23:44.963Z,17.76
2023-05-19T09:24:45.750Z,17.81
2023-05-19T09:25:46.486Z,17.81
2023-05-19T09:26:47.255Z,17.89
2023-05-19T09:27:47.983Z,17.91
2023-05-19T09:28:49.509Z,17.94
2023-05-19T09:29:49.627Z,17.99
2023-05-19T09:30:50.427Z,18.02
2023-05-19T09:31:51.208Z,18.10
2023-05-19T09:32:52.033Z,18.11
2023-05-19T09:33:52.767Z,18.17
2023-05-19T09:34:53.493Z,18.16
2023-05-19T09:35:54.569Z,18.16
2023-05-19T09:36:55.277Z,18.16
2023-05-19T09:37:56.029Z,18.23
2023-05-19T09:38:56.732Z,18.20
2023-05-19T09:39:57.475Z,18.28
2023-05-19T09:40:58.379Z,18.26
2023-05-19T09:41:59.125Z,18.31
2023-05-19T09:43:00.057Z,18.31
2023-05-19T09:44:00.889Z,18.36
2023-05-19T09:45:01.623Z,18.35
2023-05-19T09:46:02.343Z,18.42
2023-05-19T09:47:03.991Z,18.44
2023-05-19T09:48:03.560Z,18.41
2023-05-19T09:49:04.369Z,18.47
2023-05-19T09:50:05.647Z,18.46
2023-05-19T09:51:05.837Z,18.49
2023-05-19T09:52:06.564Z,18.54
2023-05-19T09:53:08.079Z,18.59
2023-05-19T09:54:08.505Z,18.64
2023-05-19T09:55:09.235Z,18.69
2023-05-19T09:56:10.098Z,18.76
2023-05-19T09:57:10.459Z,18.82
2023-05-19T09:58:12.721Z,18.87
2023-05-19T09:59:11.788Z,18.87
2023-05-19T10:00:12.502Z,18.87
2023-05-19T10:01:13.795Z,18.84
2023-05-19T10:02:13.924Z,18.76
2023-05-19T10:03:14.719Z,18.71
2023-05-19T10:04:15.425Z,18.64
2023-05-19T10:05:16.201Z,18.57
2023-05-19T10:06:16.939Z,18.64
2023-05-19T10:07:17.663Z,18.68
2023-05-19T10:08:18.979Z,18.68
2023-05-19T10:09:19.118Z,18.75
2023-05-19T10:10:19.833Z,18.78
2023-05-19T10:11:20.544Z,18.84
2023-05-19T10:12:21.450Z,18.89
2023-05-19T10:13:22.683Z,18.89
2023-05-19T10:14:22.815Z,18.90
2023-05-19T10:15:23.537Z,18.91
2023-05-19T10:16:24.251Z,18.96
2023-05-19T10:17:25.081Z,18.99
2023-05-19T10:18:25.878Z,18.99
2023-05-19T10:19:26.704Z,19.02
2023-05-19T10:20:27.455Z,19.05
2023-05-19T10:21:28.183Z,19.07
2023-05-19T10:22:28.917Z,19.13
2023-05-19T10:23:29.631Z,19.09
2023-05-19T10:24:30.381Z,19.10
2023-05-19T10:25:31.191Z,18.96
2023-05-19T10:26:32.064Z,18.91
2023-05-19T10:27:32.750Z,18.93
2023-05-19T10:28:33.449Z,18.93
2023-05-19T10:29:34.168Z,18.86
2023-05-19T10:30:34.924Z,18.89
2023-05-19T10:31:35.652Z,18.86
2023-05-19T10:32:36.356Z,18.86
2023-05-19T10:33:37.045Z,18.94
2023-05-19T10:34:37.748Z,18.93
2023-05-19T10:35:38.857Z,18.94
2023-05-19T10:36:39.126Z,18.93
2023-05-19T10:37:39.839Z,18.91
2023-05-19T10:38:40.545Z,18.86
2023-05-19T10:39:41.553Z,18.91
2023-05-19T10:40:42.451Z,18.89
2023-05-19T10:41:44.506Z,18.86
2023-05-19T10:42:44.016Z,18.84
2023-05-19T10:43:44.766Z,18.82
2023-05-19T10:44:47.372Z,18.78
2023-05-19T10:45:46.362Z,18.74
2023-05-19T10:46:47.167Z,18.78
2023-05-19T10:47:47.927Z,18.74
2023-05-19T10:48:48.650Z,18.71
2023-05-19T10:49:49.624Z,18.65
2023-05-19T10:50:50.617Z,18.53
2023-05-19T10:51:51.343Z,18.53
2023-05-19T10:52:52.054Z,18.47
2023-05-19T10:53:53.384Z,18.39
2023-05-19T10:54:53.537Z,18.38
2023-05-19T10:55:55.019Z,18.31
2023-05-19T10:56:55.148Z,18.26
2023-05-19T10:57:55.886Z,18.28
2023-05-19T10:58:56.613Z,18.23
2023-05-19T10:59:57.439Z,18.23
2023-05-19T11:00:58.147Z,18.23
2023-05-19T11:01:59.405Z,18.20
2023-05-19T11:02:59.605Z,18.25
2023-05-19T11:04:00.401Z,18.26
2023-05-19T11:05:01.130Z,18.36
2023-05-19T11:06:01.838Z,18.41
2023-05-19T11:07:02.532Z,18.53
2023-05-19T11:08:03.358Z,18.54
2023-05-19T11:09:04.142Z,18.59
2023-05-19T11:10:04.869Z,18.59
2023-05-19T11:11:05.575Z,18.62
2023-05-19T11:12:06.311Z,18.64
2023-05-19T11:13:07.059Z,18.68
2023-05-19T11:14:07.815Z,18.68
2023-05-19T11:15:08.498Z,18.68
2023-05-19T11:16:09.239Z,18.66
2023-05-19T11:17:09.963Z,18.62
2023-05-19T11:18:10.791Z,18.71
2023-05-19T11:19:11.616Z,18.69
2023-05-19T11:20:12.498Z,18.79
2023-05-19T11:21:13.234Z,18.79
2023-05-19T11:22:13.976Z,18.79
2023-05-19T11:23:14.754Z,18.82
2023-05-19T11:24:15.449Z,18.83
2023-05-19T11:25:16.153Z,18.91
2023-05-19T11:26:16.895Z,18.91
2023-05-19T11:27:17.674Z,19.05
2023-05-19T11:28:18.399Z,19.12
2023-05-19T11:29:19.115Z,19.15
2023-05-19T11:30:19.875Z,19.13
2023-05-19T11:31:20.646Z,19.20
2023-05-19T11:32:21.442Z,19.16
2023-05-19T11:33:22.191Z,19.15
2023-05-19T11:34:23.136Z,19.20
2023-05-19T11:35:23.821Z,19.20
2023-05-19T11:36:24.552Z,19.16
2023-05-19T11:37:25.266Z,19.15
2023-05-19T11:38:25.999Z,19.21
2023-05-19T11:39:26.687Z,19.20
2023-05-19T11:40:27.410Z,19.30
2023-05-19T11:41:28.211Z,19.38
2023-05-19T11:42:30.599Z,19.42
2023-05-19T11:46:59.322Z,19.67
2023-05-19T11:48:03.117Z,19.70
2023-05-19T11:49:01.841Z,19.72
2023-05-19T11:50:03.183Z,19.78
2023-05-19T11:51:03.589Z,19.79
2023-05-19T11:52:03.681Z,19.82
2023-05-19T11:53:04.400Z,19.80
2023-05-19T11:54:05.177Z,19.78
2023-05-19T11:55:05.918Z,19.79
2023-05-19T11:56:06.751Z,19.78
2023-05-19T11:57:07.480Z,19.83
2023-05-19T11:58:08.265Z,19.85
2023-05-19T11:59:09.279Z,19.87
2023-05-19T12:00:10.020Z,19.87
2023-05-19T12:01:10.814Z,19.90
2023-05-19T12:02:11.778Z,19.90
2023-05-19T12:03:12.574Z,19.98
2023-05-19T12:04:13.634Z,19.98
2023-05-19T12:05:14.351Z,19.97
2023-05-19T12:06:15.122Z,19.97
2023-05-19T12:07:15.855Z,20.01
2023-05-19T12:08:16.689Z,20.02
2023-05-19T12:09:17.716Z,20.10
2023-05-19T12:10:18.446Z,20.04
2023-05-19T12:11:20.082Z,20.01
2023-05-19T12:12:19.722Z,19.97
2023-05-19T12:13:20.477Z,19.97
2023-05-19T12:14:21.186Z,19.90
2023-05-19T12:15:21.925Z,19.82
2023-05-19T12:16:22.676Z,19.78
2023-05-19T12:17:23.450Z,19.75
2023-05-19T12:18:24.150Z,19.72
2023-05-19T12:19:25.842Z,19.72
2023-05-19T12:20:25.678Z,19.70
2023-05-19T12:21:34.161Z,19.71
2023-05-19T12:22:26.922Z,19.79
2023-05-19T12:23:28.232Z,19.78
2023-05-19T12:24:28.336Z,19.78
2023-05-19T12:25:29.060Z,19.76
2023-05-19T12:26:29.768Z,19.82
2023-05-19T12:27:30.893Z,19.82
2023-05-19T12:28:31.529Z,19.83
2023-05-19T12:29:32.345Z,19.80
2023-05-19T12:30:33.869Z,19.83
2023-05-19T12:31:34.164Z,19.82
2023-05-19T12:32:34.904Z,19.79
2023-05-19T12:33:35.989Z,19.80
2023-05-19T12:34:36.126Z,19.85
2023-05-19T12:35:36.858Z,19.86
2023-05-19T12:36:37.621Z,19.86
2023-05-19T12:37:38.358Z,19.87
2023-05-19T12:38:39.071Z,19.87
2023-05-19T12:39:39.784Z,19.86
2023-05-19T12:40:40.558Z,19.89
2023-05-19T12:41:41.281Z,19.90
2023-05-19T12:42:41.997Z,19.83
2023-05-19T12:43:42.795Z,19.86
2023-05-19T12:44:43.513Z,19.92
2023-05-19T12:45:44.580Z,20.00
2023-05-19T12:46:45.703Z,20.00
2023-05-19T12:47:45.292Z,19.98
2023-05-19T12:48:46.041Z,20.04
2023-05-19T12:49:46.739Z,20.02
2023-05-19T12:50:47.710Z,20.02
2023-05-19T12:51:48.417Z,20.05
2023-05-19T12:52:49.911Z,20.04
2023-05-19T12:53:50.177Z,20.02
2023-05-19T12:54:50.948Z,20.01
2023-05-19T12:55:51.734Z,20.04
2023-05-19T12:56:52.458Z,20.04
2023-05-19T12:57:53.211Z,20.00
2023-05-19T12:58:53.923Z,20.04
2023-05-19T12:59:54.690Z,20.07
2023-05-19T13:00:55.482Z,20.08
2023-05-19T13:01:56.293Z,20.08
2023-05-19T13:02:57.545Z,20.16
2023-05-19T13:03:57.746Z,20.20
2023-05-19T13:04:58.511Z,20.22
2023-05-19T13:05:59.226Z,20.17
2023-05-19T13:06:59.932Z,20.23
2023-05-19T13:08:00.721Z,20.26
2023-05-19T13:09:01.462Z,20.22
2023-05-19T13:10:02.168Z,20.23
2023-05-19T13:11:03.867Z,20.27
2023-05-19T13:12:03.505Z,20.23
2023-05-19T13:13:04.623Z,20.25
2023-05-19T13:14:05.607Z,20.25
2023-05-19T13:15:05.927Z,20.26
2023-05-19T13:16:06.616Z,20.23
2023-05-19T13:17:07.736Z,20.22
2023-05-19T13:18:07.979Z,20.22
2023-05-19T13:19:24.455Z,20.20
2023-05-19T13:20:11.646Z,20.25
2023-05-19T13:21:10.626Z,20.20
2023-05-19T13:22:11.498Z,20.16
2023-05-19T13:23:12.233Z,20.17
2023-05-19T13:24:12.967Z,20.19
2023-05-19T13:25:13.691Z,20.22
2023-05-19T13:26:14.389Z,20.16
2023-05-19T13:27:15.094Z,20.23
2023-05-19T13:28:16.309Z,20.20
2023-05-19T13:29:16.625Z,20.17
2023-05-19T13:30:17.362Z,20.20
2023-05-19T13:31:18.668Z,20.19
2023-05-19T13:32:19.176Z,20.25
2023-05-19T13:33:19.381Z,20.25
2023-05-19T13:34:20.091Z,20.22
2023-05-19T13:35:20.811Z,20.23
2023-05-19T13:36:22.218Z,20.23
2023-05-19T13:37:22.409Z,20.17
2023-05-19T13:38:23.118Z,20.20
2023-05-19T13:39:23.820Z,20.19
2023-05-19T13:40:24.724Z,20.20
2023-05-19T13:41:25.734Z,20.22
2023-05-19T13:42:26.526Z,20.23
2023-05-19T13:43:27.288Z,20.23
2023-05-19T13:44:28.013Z,20.23
2023-05-19T13:45:28.795Z,20.26
2023-05-19T13:46:43.871Z,20.23
2023-05-19T13:47:30.637Z,20.20
2023-05-19T13:48:31.384Z,20.25
2023-05-19T13:49:32.106Z,20.26
2023-05-19T13:50:32.801Z,20.25
2023-05-19T13:51:33.515Z,20.26
2023-05-19T13:52:34.236Z,20.23
2023-05-19T13:53:34.969Z,20.26
2023-05-19T13:54:35.679Z,20.23
2023-05-19T13:55:36.401Z,20.25
2023-05-19T13:56:37.151Z,20.30
2023-05-19T13:57:37.956Z,20.25
2023-05-19T13:58:39.682Z,20.22
2023-05-19T13:59:45.928Z,20.16
2023-05-19T14:00:40.219Z,20.23
2023-05-19T14:01:40.931Z,20.17
2023-05-19T14:02:42.048Z,20.15
2023-05-19T14:03:42.309Z,20.16
2023-05-19T14:04:43.036Z,20.13
2023-05-19T14:05:43.770Z,20.13
2023-05-19T14:06:44.769Z,20.10
2023-05-19T14:07:45.530Z,20.07
2023-05-19T14:08:46.243Z,20.01
2023-05-19T14:09:46.972Z,20.05
2023-05-19T14:10:47.687Z,19.98
2023-05-19T14:11:48.413Z,20.00
2023-05-19T14:13:18.219Z,19.98
2023-05-19T14:13:52.334Z,20.00
2023-05-19T14:14:50.631Z,19.97
2023-05-19T14:15:51.986Z,19.98
2023-05-19T14:16:52.172Z,20.04
2023-05-19T14:17:52.929Z,20.02
2023-05-19T14:18:53.796Z,20.00
2023-05-19T14:19:54.523Z,19.97
2023-05-19T14:20:55.218Z,20.01
2023-05-19T14:21:55.958Z,20.01
2023-05-19T14:22:56.675Z,20.00
2023-05-19T14:23:57.533Z,19.98
2023-05-19T14:24:58.429Z,19.97
2023-05-19T14:25:59.122Z,20.01
2023-05-19T14:27:00.386Z,19.94
2023-05-19T14:28:00.540Z,19.95
2023-05-19T14:29:02.544Z,19.87
2023-05-19T14:30:01.906Z,19.87
2023-05-19T14:31:02.631Z,19.87
2023-05-19T14:32:03.716Z,19.89
2023-05-19T14:33:03.952Z,19.89
2023-05-19T14:34:04.723Z,19.90
2023-05-19T14:35:05.400Z,19.86
2023-05-19T14:36:06.185Z,19.87
2023-05-19T14:37:06.894Z,19.82
2023-05-19T14:38:07.647Z,19.82
2023-05-19T14:39:08.329Z,19.82
2023-05-19T14:40:09.043Z,19.85
2023-05-19T14:41:09.765Z,19.75
2023-05-19T14:42:10.482Z,19.75
2023-05-19T14:43:11.209Z,19.71
2023-05-19T14:44:11.933Z,19.70
2023-05-19T14:45:12.648Z,19.67
2023-05-19T14:46:14.148Z,19.64
2023-05-19T14:47:14.368Z,19.58
2023-05-19T14:48:16.869Z,19.50
2023-05-19T14:49:15.824Z,19.47
2023-05-19T14:50:16.586Z,19.39
2023-05-19T14:51:17.289Z,19.39
2023-05-19T14:52:18.045Z,19.30
2023-05-19T14:53:18.770Z,19.27
2023-05-19T14:54:19.485Z,19.30
2023-05-19T14:55:20.183Z,19.24
2023-05-19T14:56:20.910Z,19.28
2023-05-19T14:57:21.666Z,19.24
2023-05-19T14:58:28.791Z,19.32
2023-05-19T14:59:23.376Z,19.28
2023-05-19T15:00:24.159Z,19.28
2023-05-19T15:01:25.748Z,19.28
2023-05-19T15:02:27.637Z,19.28
2023-05-19T15:03:26.855Z,19.34
2023-05-19T15:04:27.707Z,19.39
2023-05-19T15:05:28.847Z,19.35
2023-05-19T15:06:28.963Z,19.38
2023-05-19T15:07:29.698Z,19.39
2023-05-19T15:08:30.432Z,19.46
2023-05-19T15:09:31.242Z,19.45
2023-05-19T15:10:32.454Z,19.49
2023-05-19T15:11:32.686Z,19.46
2023-05-19T15:12:33.432Z,19.50
2023-05-19T15:13:34.254Z,19.52
2023-05-19T15:14:35.094Z,19.53
2023-05-19T15:15:35.808Z,19.53
2023-05-19T15:16:36.635Z,19.53
2023-05-19T15:17:37.380Z,19.49
2023-05-19T15:18:38.111Z,19.49
2023-05-19T15:19:38.983Z,19.49
2023-05-19T15:20:39.797Z,19.50
2023-05-19T15:21:40.537Z,19.46
2023-05-19T15:22:41.326Z,19.45
2023-05-19T15:23:42.202Z,19.47
2023-05-19T15:24:42.986Z,19.43
2023-05-19T15:25:43.754Z,19.47
2023-05-19T15:26:44.854Z,19.43
2023-05-19T15:27:44.995Z,19.40
2023-05-19T15:28:45.815Z,19.38
2023-05-19T15:29:46.534Z,19.32
2023-05-19T15:30:47.258Z,19.34
2023-05-19T15:31:48.087Z,19.34
2023-05-19T15:32:48.930Z,19.31
2023-05-19T15:33:49.699Z,19.30
2023-05-19T15:34:50.452Z,19.25
2023-05-19T15:35:51.166Z,19.27
2023-05-19T15:36:51.880Z,19.25
2023-05-19T15:37:52.657Z,19.27
2023-05-19T15:38:53.371Z,19.28
2023-05-19T15:39:54.069Z,19.28
2023-05-19T15:40:54.804Z,19.27
2023-05-19T15:41:55.522Z,19.30
2023-05-19T15:42:56.269Z,19.30
2023-05-19T15:43:57.009Z,19.30
2023-05-19T15:44:57.713Z,19.28
2023-05-19T15:45:58.687Z,19.32
2023-05-19T15:46:59.404Z,19.28
2023-05-19T15:48:00.272Z,19.32
2023-05-19T15:49:01.211Z,19.35
2023-05-19T15:50:01.916Z,19.28
2023-05-19T15:51:02.621Z,19.35
2023-05-19T15:52:03.339Z,19.34
2023-05-19T15:53:04.099Z,19.39
2023-05-19T15:54:04.885Z,19.34
2023-05-19T15:55:05.681Z,19.34
2023-05-19T15:56:06.952Z,19.32
2023-05-19T15:57:07.176Z,19.39
2023-05-19T15:58:07.897Z,19.34
2023-05-19T15:59:08.849Z,19.30
2023-05-19T16:00:09.556Z,19.34
2023-05-19T16:01:10.298Z,19.30
2023-05-19T16:02:11.066Z,19.28
2023-05-19T16:03:11.853Z,19.30
2023-05-19T16:04:12.772Z,19.30
2023-05-19T16:05:13.537Z,19.25
2023-05-19T16:06:14.288Z,19.27
2023-05-19T16:07:14.999Z,19.30
2023-05-19T16:08:15.703Z,19.31
2023-05-19T16:09:16.429Z,19.28
2023-05-19T16:10:17.164Z,19.28
2023-05-19T16:11:17.915Z,19.25
2023-05-19T16:12:19.150Z,19.27
2023-05-19T16:13:19.308Z,19.28
2023-05-19T16:14:20.115Z,19.30
2023-05-19T16:15:20.840Z,19.27
2023-05-19T16:16:21.568Z,19.27
2023-05-19T16:17:22.334Z,19.28
2023-05-19T16:18:23.438Z,19.30
2023-05-19T16:19:23.665Z,19.27
2023-05-19T16:20:24.434Z,19.25
2023-05-19T16:21:25.885Z,19.28
2023-05-19T16:22:26.019Z,19.23
2023-05-19T16:23:26.712Z,19.25
2023-05-19T16:24:27.434Z,19.24
2023-05-19T16:25:28.181Z,19.23
2023-05-19T16:26:28.966Z,19.23
2023-05-19T16:27:29.770Z,19.25
2023-05-19T16:28:30.505Z,19.25
2023-05-19T16:29:31.198Z,19.21
2023-05-19T16:30:32.217Z,19.16
2023-05-19T16:31:32.990Z,19.24
2023-05-19T16:32:33.976Z,19.20
2023-05-19T16:33:34.860Z,19.23
2023-05-19T16:34:35.963Z,19.16
2023-05-19T17:36:23.100Z,18.59
2023-05-19T17:37:25.013Z,18.57
2023-05-19T17:38:25.729Z,18.62
2023-05-19T17:39:26.463Z,18.57
2023-05-19T17:40:27.243Z,18.54
2023-05-19T17:41:27.918Z,18.53
2023-05-19T17:42:28.652Z,18.57
2023-05-19T17:43:30.740Z,18.56
2023-05-19T17:44:30.386Z,18.57
2023-05-19T17:45:31.205Z,18.51
2023-05-19T17:46:33.880Z,18.54
2023-05-19T17:47:35.433Z,18.51
2023-05-19T17:48:33.878Z,18.47
2023-05-19T17:49:34.593Z,18.56
2023-05-19T17:50:35.484Z,18.51
2023-05-19T17:51:36.276Z,18.50
2023-05-19T17:52:36.997Z,18.50
2023-05-19T17:53:37.797Z,18.53
2023-05-19T17:54:38.857Z,18.53
2023-05-19T17:55:39.568Z,18.50
2023-05-19T17:56:40.294Z,18.56
2023-05-19T17:57:42.080Z,18.51
2023-05-19T17:58:42.591Z,18.53
2023-05-19T17:59:42.405Z,18.56
2023-05-19T18:00:43.195Z,18.51
2023-05-19T18:01:44.257Z,18.59
2023-05-19T18:02:45.125Z,18.59
2023-05-19T18:03:46.278Z,18.56
2023-05-19T18:04:46.539Z,18.62
2023-05-19T18:05:47.263Z,18.57
2023-05-19T18:06:48.245Z,18.59
2023-05-19T18:07:50.198Z,18.64
2023-05-19T18:08:50.843Z,18.62
2023-05-19T18:09:51.361Z,18.62
2023-05-19T18:10:51.695Z,18.57
2023-05-19T18:11:52.534Z,18.60
2023-05-19T18:12:53.259Z,18.62
2023-05-19T18:13:54.004Z,18.60
2023-05-19T18:14:54.726Z,18.62
2023-05-19T18:15:56.449Z,18.59
2023-05-19T18:16:56.173Z,18.65
2023-05-19T18:17:57.016Z,18.59
2023-05-19T18:18:58.035Z,18.56
2023-05-19T18:19:58.795Z,18.57
2023-05-19T18:20:59.626Z,18.54
2023-05-19T18:22:00.380Z,18.56
2023-05-19T18:23:02.024Z,18.53
2023-05-19T18:24:02.240Z,18.47
2023-05-19T18:25:02.990Z,18.49
2023-05-19T18:26:03.818Z,18.44
2023-05-19T18:27:04.554Z,18.39
2023-05-19T18:29:40.483Z,18.31
2023-05-19T18:30:42.331Z,18.28
2023-05-19T18:31:43.907Z,18.21
2023-05-19T18:32:44.042Z,18.21
2023-05-19T18:33:44.731Z,18.16
2023-05-19T18:34:45.429Z,18.20
2023-05-19T18:35:46.490Z,18.17
2023-05-19T18:36:46.766Z,18.17
2023-05-19T18:37:47.491Z,18.19
2023-05-19T18:38:48.176Z,18.11
2023-05-19T18:39:48.920Z,18.16
2023-05-19T18:40:49.630Z,18.16
2023-05-19T18:41:50.342Z,18.14
2023-05-19T18:42:51.071Z,18.17
2023-05-19T18:43:51.783Z,18.17
2023-05-19T18:44:52.491Z,18.17
2023-05-19T18:45:53.268Z,18.16
2023-05-19T18:46:53.998Z,18.14
2023-05-19T18:47:54.887Z,18.11
2023-05-19T18:48:55.578Z,18.11
2023-05-19T18:49:56.306Z,18.09
2023-05-19T18:50:57.013Z,18.11
2023-05-19T18:51:57.707Z,18.09
2023-05-19T18:52:58.424Z,18.11
2023-05-19T18:53:59.196Z,18.11
2023-05-19T18:54:59.937Z,18.13
2023-05-19T18:56:00.660Z,18.10
2023-05-19T18:57:01.364Z,18.13
2023-05-19T18:58:02.089Z,18.10
2023-05-19T18:59:02.876Z,18.10
2023-05-19T19:00:03.647Z,18.09
2023-05-19T19:01:04.537Z,18.07
2023-05-19T19:02:05.221Z,18.04
2023-05-19T19:03:05.979Z,18.04
2023-05-19T19:04:06.739Z,18.04
2023-05-19T19:05:07.464Z,18.05
2023-05-19T19:06:08.692Z,18.04
2023-05-19T19:07:08.838Z,18.01
2023-05-19T19:08:09.688Z,18.01
2023-05-19T19:09:10.398Z,18.02
2023-05-19T19:10:11.141Z,18.01
2023-05-19T19:11:12.511Z,18.04
2023-05-19T19:12:12.678Z,17.98
2023-05-19T19:13:13.394Z,17.96
2023-05-19T19:14:14.115Z,18.01
2023-05-19T19:15:14.861Z,17.92
2023-05-19T19:16:15.567Z,17.98
2023-05-19T19:17:16.322Z,17.89
2023-05-19T19:18:17.094Z,17.89
2023-05-19T19:19:17.983Z,17.86
2023-05-19T19:20:18.907Z,17.84
2023-05-19T19:21:19.631Z,17.81
2023-05-19T19:22:20.334Z,17.86
2023-05-19T19:23:21.139Z,17.80
2023-05-19T19:24:21.815Z,17.74
2023-05-19T19:25:23.638Z,17.73
2023-05-19T19:26:23.317Z,17.71
2023-05-19T19:27:24.066Z,17.66
2023-05-19T19:28:24.762Z,17.66
2023-05-19T19:29:25.483Z,17.62
2023-05-19T19:30:26.227Z,17.57
2023-05-19T19:31:27.117Z,17.60
2023-05-19T19:32:27.901Z,17.53
2023-05-19T19:33:28.600Z,17.51
2023-05-19T19:34:29.383Z,17.54
2023-05-19T19:35:30.153Z,17.45
2023-05-19T19:36:30.906Z,17.43
2023-05-19T19:37:31.767Z,17.43
2023-05-19T19:38:32.528Z,17.38
2023-05-19T19:39:33.304Z,17.36
2023-05-19T19:40:34.218Z,17.33
2023-05-19T19:41:34.664Z,17.30
2023-05-19T19:42:35.356Z,17.28
2023-05-19T19:43:36.105Z,17.32
2023-05-19T19:44:37.571Z,17.25
2023-05-19T19:45:37.726Z,17.27
2023-05-19T19:46:38.445Z,17.22
2023-05-19T19:47:39.173Z,17.24
2023-05-19T19:48:39.884Z,17.24
2023-05-19T19:49:40.579Z,17.18
2023-05-19T19:50:41.410Z,17.20
2023-05-19T19:51:42.094Z,17.15
2023-05-19T19:52:42.832Z,17.15
2023-05-19T19:53:43.546Z,17.18
2023-05-19T19:54:44.288Z,17.12
2023-05-19T19:55:45.010Z,17.12
2023-05-19T19:56:45.718Z,17.10
2023-05-19T19:57:46.424Z,17.03
2023-05-19T19:58:47.135Z,17.06
2023-05-19T19:59:47.862Z,16.98
2023-05-19T20:00:48.572Z,16.96
2023-05-19T20:01:49.316Z,16.91
2023-05-19T20:03:02.859Z,16.90
2023-05-19T20:03:51.179Z,16.87
2023-05-19T20:04:52.023Z,16.87
2023-05-19T20:05:52.742Z,16.78
2023-05-19T20:06:53.723Z,16.81
2023-05-19T20:07:54.438Z,16.73
2023-05-19T20:08:55.170Z,16.77
2023-05-19T20:09:55.889Z,16.77
2023-05-19T20:10:56.574Z,16.73
2023-05-19T20:11:57.281Z,16.72
2023-05-19T20:12:57.993Z,16.73
2023-05-19T20:13:58.720Z,16.73
2023-05-19T20:14:59.436Z,16.75
2023-05-19T20:16:00.160Z,16.73
2023-05-19T20:17:00.936Z,16.70
2023-05-19T20:18:02.561Z,16.69
2023-05-19T20:19:06.797Z,16.69
2023-05-19T20:20:03.622Z,16.70
2023-05-19T20:21:04.556Z,16.69
2023-05-19T20:22:08.307Z,16.69
2023-05-19T20:23:06.203Z,16.67
2023-05-19T20:24:07.357Z,16.67
2023-05-19T20:25:07.074Z,16.67
2023-05-19T20:26:11.771Z,16.67
2023-05-19T20:27:08.536Z,16.63
2023-05-19T20:28:17.435Z,16.69
2023-05-19T20:29:10.490Z,16.62
2023-05-19T20:30:13.918Z,16.60
2023-05-19T20:31:12.956Z,16.52
2023-05-19T20:32:13.818Z,16.51
2023-05-19T20:33:14.703Z,16.48
2023-05-19T20:34:17.723Z,16.42
2023-05-19T20:35:23.834Z,16.40
2023-05-19T20:36:15.784Z,16.34
2023-05-19T20:37:18.217Z,16.36
2023-05-19T20:38:18.667Z,16.27
2023-05-19T20:39:18.876Z,16.25
2023-05-19T20:40:19.636Z,16.17
2023-05-19T20:41:19.268Z,16.17
2023-05-19T20:42:23.048Z,16.11
2023-05-19T20:43:24.523Z,16.07
2023-05-19T20:44:23.611Z,15.98
2023-05-19T20:45:24.437Z,16.01
2023-05-19T20:46:24.525Z,15.95
2023-05-19T20:47:26.935Z,15.92
2023-05-19T20:48:26.095Z,15.86
2023-05-19T20:49:29.960Z,15.88
2023-05-19T20:50:28.976Z,15.84
2023-05-19T20:51:29.373Z,15.77
2023-05-19T20:52:52.443Z,15.73
2023-05-19T20:53:32.432Z,15.70
2023-05-19T20:54:32.734Z,15.67
2023-05-19T20:55:33.606Z,15.60
2023-05-19T20:56:32.377Z,15.64
2023-05-19T20:57:33.609Z,15.60
2023-05-19T20:58:35.098Z,15.53
2023-05-19T20:59:38.318Z,15.59
2023-05-19T21:00:36.541Z,15.52
2023-05-19T21:01:37.478Z,15.46
2023-05-19T21:02:41.342Z,15.48
